sensor_id;sensor_type;location;lat;lon;timestamp;P1;durP1;ratioP1;P2;durP2;ratioP2
58768;SDS011;44536;47.474;19.056;2023-03-20T00:00:33;18.17;;;12.18;;
58768;SDS011;44536;47.474;19.056;2023-03-20T00:03:38;17.85;;;13.48;;
58768;SDS011;44536;47.474;19.056;2023-03-20T00:06:40;16.73;;;11.40;;
58768;SDS011;44536;47.474;19.056;2023-03-20T00:09:43;23.02;;;12.07;;
58768;SDS011;44536;47.474;19.056;2023-03-20T00:12:45;19.08;;;12.95;;
58768;SDS011;44536;47.474;19.056;2023-03-20T00:15:49;20.10;;;12.43;;
58768;SDS011;44536;47.474;19.056;2023-03-20T00:18:52;16.87;;;11.87;;
58768;SDS011;44536;47.474;19.056;2023-03-20T00:21:57;17.00;;;12.95;;
58768;SDS011;44536;47.474;19.056;2023-03-20T00:24:59;19.70;;;11.55;;
58768;SDS011;44536;47.474;19.056;2023-03-20T00:28:03;20.02;;;13.10;;
58768;SDS011;44536;47.474;19.056;2023-03-20T00:37:37;17.23;;;10.80;;
58768;SDS011;44536;47.474;19.056;2023-03-20T00:40:40;18.75;;;11.77;;
58768;SDS011;44536;47.474;19.056;2023-03-20T00:43:45;21.27;;;12.13;;
58768;SDS011;44536;47.474;19.056;2023-03-20T00:46:51;21.02;;;12.40;;
58768;SDS011;44536;47.474;19.056;2023-03-20T00:49:56;18.05;;;12.93;;
58768;SDS011;44536;47.474;19.056;2023-03-20T00:52:59;21.83;;;12.43;;
58768;SDS011;44536;47.474;19.056;2023-03-20T00:56:02;17.15;;;9.80;;
58768;SDS011;44536;47.474;19.056;2023-03-20T00:59:08;20.02;;;12.48;;
58768;SDS011;44536;47.474;19.056;2023-03-20T01:02:19;16.20;;;10.63;;
58768;SDS011;44536;47.474;19.056;2023-03-20T01:05:25;20.05;;;11.48;;
58768;SDS011;44536;47.474;19.056;2023-03-20T01:11:30;19.00;;;11.20;;
58768;SDS011;44536;47.474;19.056;2023-03-20T01:14:33;19.70;;;11.70;;
58768;SDS011;44536;47.474;19.056;2023-03-20T01:17:36;16.60;;;11.13;;
58768;SDS011;44536;47.474;19.056;2023-03-20T01:20:38;21.15;;;11.20;;
58768;SDS011;44536;47.474;19.056;2023-03-20T01:23:41;15.73;;;11.12;;
58768;SDS011;44536;47.474;19.056;2023-03-20T01:26:44;16.65;;;11.60;;
58768;SDS011;44536;47.474;19.056;2023-03-20T01:29:48;19.45;;;10.93;;
58768;SDS011;44536;47.474;19.056;2023-03-20T01:32:51;19.08;;;12.15;;
58768;SDS011;44536;47.474;19.056;2023-03-20T01:38:58;16.25;;;10.00;;
58768;SDS011;44536;47.474;19.056;2023-03-20T01:42:01;16.45;;;10.98;;
58768;SDS011;44536;47.474;19.056;2023-03-20T01:45:13;16.73;;;10.68;;
58768;SDS011;44536;47.474;19.056;2023-03-20T01:48:18;18.87;;;10.52;;
58768;SDS011;44536;47.474;19.056;2023-03-20T01:54:31;17.10;;;10.15;;
58768;SDS011;44536;47.474;19.056;2023-03-20T01:57:38;15.25;;;9.25;;
58768;SDS011;44536;47.474;19.056;2023-03-20T02:00:41;15.88;;;9.68;;
58768;SDS011;44536;47.474;19.056;2023-03-20T02:03:46;16.05;;;9.88;;
58768;SDS011;44536;47.474;19.056;2023-03-20T02:06:51;16.77;;;11.10;;
58768;SDS011;44536;47.474;19.056;2023-03-20T02:09:54;19.43;;;9.87;;
58768;SDS011;44536;47.474;19.056;2023-03-20T02:12:57;14.93;;;9.35;;
58768;SDS011;44536;47.474;19.056;2023-03-20T02:16:04;14.45;;;8.60;;
58768;SDS011;44536;47.474;19.056;2023-03-20T02:19:22;15.18;;;10.10;;
58768;SDS011;44536;47.474;19.056;2023-03-20T02:52:21;17.40;;;10.48;;
58768;SDS011;44536;47.474;19.056;2023-03-20T02:55:38;12.73;;;8.77;;
58768;SDS011;44536;47.474;19.056;2023-03-20T02:58:53;16.55;;;10.27;;
58768;SDS011;44536;47.474;19.056;2023-03-20T03:02:05;18.55;;;9.18;;
58768;SDS011;44536;47.474;19.056;2023-03-20T03:05:22;15.18;;;8.80;;
58768;SDS011;44536;47.474;19.056;2023-03-20T03:08:31;15.23;;;8.75;;
58768;SDS011;44536;47.474;19.056;2023-03-20T03:11:47;17.52;;;9.57;;
58768;SDS011;44536;47.474;19.056;2023-03-20T03:14:53;16.17;;;8.90;;
58768;SDS011;44536;47.474;19.056;2023-03-20T03:18:01;13.98;;;8.68;;
58768;SDS011;44536;47.474;19.056;2023-03-20T03:21:07;16.98;;;9.45;;
58768;SDS011;44536;47.474;19.056;2023-03-20T03:24:26;13.88;;;8.73;;
58768;SDS011;44536;47.474;19.056;2023-03-20T03:27:43;18.20;;;10.32;;
58768;SDS011;44536;47.474;19.056;2023-03-20T03:30:50;13.90;;;8.55;;
58768;SDS011;44536;47.474;19.056;2023-03-20T03:33:56;14.63;;;9.07;;
58768;SDS011;44536;47.474;19.056;2023-03-20T03:40:20;15.63;;;9.30;;
58768;SDS011;44536;47.474;19.056;2023-03-20T03:43:33;16.83;;;9.27;;
58768;SDS011;44536;47.474;19.056;2023-03-20T03:46:58;21.62;;;9.27;;
58768;SDS011;44536;47.474;19.056;2023-03-20T03:50:10;15.63;;;8.43;;
58768;SDS011;44536;47.474;19.056;2023-03-20T03:53:25;15.52;;;9.77;;
58768;SDS011;44536;47.474;19.056;2023-03-20T03:56:33;14.90;;;7.93;;
58768;SDS011;44536;47.474;19.056;2023-03-20T03:59:39;15.50;;;8.25;;
58768;SDS011;44536;47.474;19.056;2023-03-20T04:02:46;12.45;;;8.10;;
58768;SDS011;44536;47.474;19.056;2023-03-20T04:05:52;14.27;;;8.40;;
58768;SDS011;44536;47.474;19.056;2023-03-20T04:08:57;17.52;;;8.18;;
58768;SDS011;44536;47.474;19.056;2023-03-20T04:12:00;14.18;;;7.90;;
58768;SDS011;44536;47.474;19.056;2023-03-20T04:15:03;13.52;;;8.45;;
58768;SDS011;44536;47.474;19.056;2023-03-20T04:18:06;13.62;;;7.97;;
58768;SDS011;44536;47.474;19.056;2023-03-20T04:21:12;16.15;;;8.90;;
58768;SDS011;44536;47.474;19.056;2023-03-20T04:24:17;14.23;;;7.80;;
58768;SDS011;44536;47.474;19.056;2023-03-20T04:27:19;12.13;;;8.27;;
58768;SDS011;44536;47.474;19.056;2023-03-20T04:30:22;14.27;;;7.65;;
58768;SDS011;44536;47.474;19.056;2023-03-20T04:33:27;15.45;;;8.88;;
58768;SDS011;44536;47.474;19.056;2023-03-20T04:36:31;15.18;;;9.00;;
58768;SDS011;44536;47.474;19.056;2023-03-20T04:39:33;14.87;;;8.27;;
58768;SDS011;44536;47.474;19.056;2023-03-20T04:42:37;14.98;;;7.62;;
58768;SDS011;44536;47.474;19.056;2023-03-20T04:45:40;13.32;;;8.77;;
58768;SDS011;44536;47.474;19.056;2023-03-20T04:48:43;14.00;;;9.40;;
58768;SDS011;44536;47.474;19.056;2023-03-20T04:51:45;16.77;;;8.15;;
58768;SDS011;44536;47.474;19.056;2023-03-20T04:54:49;14.00;;;8.80;;
58768;SDS011;44536;47.474;19.056;2023-03-20T04:57:52;14.93;;;8.73;;
58768;SDS011;44536;47.474;19.056;2023-03-20T05:00:54;17.70;;;8.63;;
58768;SDS011;44536;47.474;19.056;2023-03-20T05:03:57;14.85;;;9.48;;
58768;SDS011;44536;47.474;19.056;2023-03-20T05:07:03;15.63;;;8.82;;
58768;SDS011;44536;47.474;19.056;2023-03-20T05:10:06;19.30;;;9.27;;
58768;SDS011;44536;47.474;19.056;2023-03-20T05:13:10;13.05;;;8.32;;
58768;SDS011;44536;47.474;19.056;2023-03-20T05:16:12;14.10;;;8.95;;
58768;SDS011;44536;47.474;19.056;2023-03-20T05:19:15;14.00;;;7.33;;
58768;SDS011;44536;47.474;19.056;2023-03-20T05:22:19;17.10;;;9.70;;
58768;SDS011;44536;47.474;19.056;2023-03-20T05:25:22;13.73;;;8.13;;
58768;SDS011;44536;47.474;19.056;2023-03-20T05:28:25;15.80;;;8.87;;
58768;SDS011;44536;47.474;19.056;2023-03-20T05:31:28;15.65;;;9.57;;
58768;SDS011;44536;47.474;19.056;2023-03-20T05:34:31;17.08;;;9.23;;
58768;SDS011;44536;47.474;19.056;2023-03-20T05:37:34;17.17;;;8.80;;
58768;SDS011;44536;47.474;19.056;2023-03-20T05:40:37;15.27;;;9.10;;
58768;SDS011;44536;47.474;19.056;2023-03-20T05:43:41;12.82;;;7.93;;
58768;SDS011;44536;47.474;19.056;2023-03-20T05:46:43;15.45;;;9.02;;
58768;SDS011;44536;47.474;19.056;2023-03-20T05:49:46;13.48;;;8.32;;
58768;SDS011;44536;47.474;19.056;2023-03-20T05:52:49;17.03;;;9.43;;
58768;SDS011;44536;47.474;19.056;2023-03-20T05:55:52;14.00;;;8.77;;
58768;SDS011;44536;47.474;19.056;2023-03-20T05:58:57;17.25;;;10.95;;
58768;SDS011;44536;47.474;19.056;2023-03-20T06:02:01;14.07;;;8.90;;
58768;SDS011;44536;47.474;19.056;2023-03-20T06:05:03;14.98;;;9.70;;
58768;SDS011;44536;47.474;19.056;2023-03-20T06:08:08;17.90;;;10.38;;
58768;SDS011;44536;47.474;19.056;2023-03-20T06:11:11;12.50;;;8.37;;
58768;SDS011;44536;47.474;19.056;2023-03-20T06:14:13;18.83;;;10.07;;
58768;SDS011;44536;47.474;19.056;2023-03-20T06:17:17;10.77;;;7.75;;
58768;SDS011;44536;47.474;19.056;2023-03-20T06:20:21;14.05;;;8.13;;
58768;SDS011;44536;47.474;19.056;2023-03-20T06:23:25;14.35;;;9.43;;
58768;SDS011;44536;47.474;19.056;2023-03-20T06:26:27;14.07;;;8.32;;
58768;SDS011;44536;47.474;19.056;2023-03-20T06:29:30;16.80;;;8.45;;
58768;SDS011;44536;47.474;19.056;2023-03-20T06:32:33;15.88;;;9.38;;
58768;SDS011;44536;47.474;19.056;2023-03-20T06:35:36;15.05;;;10.00;;
58768;SDS011;44536;47.474;19.056;2023-03-20T06:38:39;14.50;;;8.82;;
58768;SDS011;44536;47.474;19.056;2023-03-20T06:41:43;15.27;;;8.45;;
58768;SDS011;44536;47.474;19.056;2023-03-20T06:44:46;17.33;;;10.35;;
58768;SDS011;44536;47.474;19.056;2023-03-20T06:47:49;14.20;;;9.63;;
58768;SDS011;44536;47.474;19.056;2023-03-20T06:50:51;13.20;;;8.77;;
58768;SDS011;44536;47.474;19.056;2023-03-20T06:53:55;14.07;;;8.50;;
58768;SDS011;44536;47.474;19.056;2023-03-20T06:56:58;16.30;;;8.07;;
58768;SDS011;44536;47.474;19.056;2023-03-20T07:00:01;12.93;;;7.95;;
58768;SDS011;44536;47.474;19.056;2023-03-20T07:03:05;12.07;;;8.15;;
58768;SDS011;44536;47.474;19.056;2023-03-20T07:06:08;14.27;;;9.20;;
58768;SDS011;44536;47.474;19.056;2023-03-20T07:09:13;14.07;;;9.18;;
58768;SDS011;44536;47.474;19.056;2023-03-20T07:12:15;15.20;;;9.93;;
58768;SDS011;44536;47.474;19.056;2023-03-20T07:15:21;17.20;;;10.48;;
58768;SDS011;44536;47.474;19.056;2023-03-20T07:18:25;15.07;;;9.30;;
58768;SDS011;44536;47.474;19.056;2023-03-20T07:21:29;13.88;;;8.23;;
58768;SDS011;44536;47.474;19.056;2023-03-20T07:24:33;13.23;;;9.82;;
58768;SDS011;44536;47.474;19.056;2023-03-20T07:27:36;12.32;;;8.85;;
58768;SDS011;44536;47.474;19.056;2023-03-20T07:30:39;15.18;;;9.60;;
58768;SDS011;44536;47.474;19.056;2023-03-20T07:36:44;15.30;;;9.57;;
58768;SDS011;44536;47.474;19.056;2023-03-20T07:39:49;17.02;;;9.43;;
58768;SDS011;44536;47.474;19.056;2023-03-20T07:42:52;14.75;;;9.20;;
58768;SDS011;44536;47.474;19.056;2023-03-20T07:45:56;12.63;;;9.25;;
58768;SDS011;44536;47.474;19.056;2023-03-20T07:49:06;15.65;;;9.55;;
58768;SDS011;44536;47.474;19.056;2023-03-20T07:52:08;13.35;;;8.98;;
58768;SDS011;44536;47.474;19.056;2023-03-20T07:55:11;13.73;;;9.18;;
58768;SDS011;44536;47.474;19.056;2023-03-20T07:58:14;15.85;;;9.23;;
58768;SDS011;44536;47.474;19.056;2023-03-20T08:01:16;16.50;;;9.07;;
58768;SDS011;44536;47.474;19.056;2023-03-20T08:04:19;14.07;;;8.60;;
58768;SDS011;44536;47.474;19.056;2023-03-20T08:07:23;13.15;;;8.07;;
58768;SDS011;44536;47.474;19.056;2023-03-20T08:10:26;13.20;;;9.03;;
58768;SDS011;44536;47.474;19.056;2023-03-20T08:13:29;18.58;;;10.30;;
58768;SDS011;44536;47.474;19.056;2023-03-20T08:16:32;13.68;;;7.62;;
58768;SDS011;44536;47.474;19.056;2023-03-20T08:19:34;12.07;;;8.50;;
58768;SDS011;44536;47.474;19.056;2023-03-20T08:22:37;12.13;;;7.80;;
58768;SDS011;44536;47.474;19.056;2023-03-20T08:25:40;13.90;;;8.50;;
58768;SDS011;44536;47.474;19.056;2023-03-20T08:28:43;14.85;;;7.28;;
58768;SDS011;44536;47.474;19.056;2023-03-20T08:31:49;12.82;;;7.43;;
58768;SDS011;44536;47.474;19.056;2023-03-20T08:34:52;10.45;;;7.07;;
58768;SDS011;44536;47.474;19.056;2023-03-20T08:37:56;12.57;;;8.10;;
58768;SDS011;44536;47.474;19.056;2023-03-20T08:40:58;11.05;;;6.90;;
58768;SDS011;44536;47.474;19.056;2023-03-20T08:44:01;11.73;;;6.37;;
58768;SDS011;44536;47.474;19.056;2023-03-20T08:47:04;10.00;;;6.25;;
58768;SDS011;44536;47.474;19.056;2023-03-20T08:50:08;10.90;;;6.03;;
58768;SDS011;44536;47.474;19.056;2023-03-20T08:53:12;11.95;;;6.00;;
58768;SDS011;44536;47.474;19.056;2023-03-20T08:56:14;10.48;;;5.97;;
58768;SDS011;44536;47.474;19.056;2023-03-20T08:59:17;11.70;;;7.40;;
58768;SDS011;44536;47.474;19.056;2023-03-20T09:02:20;14.52;;;6.57;;
58768;SDS011;44536;47.474;19.056;2023-03-20T09:05:22;12.13;;;5.45;;
58768;SDS011;44536;47.474;19.056;2023-03-20T09:08:25;10.57;;;6.60;;
58768;SDS011;44536;47.474;19.056;2023-03-20T09:11:29;9.27;;;5.53;;
58768;SDS011;44536;47.474;19.056;2023-03-20T09:14:32;11.25;;;6.78;;
58768;SDS011;44536;47.474;19.056;2023-03-20T09:17:34;9.38;;;5.62;;
58768;SDS011;44536;47.474;19.056;2023-03-20T09:20:37;12.20;;;6.53;;
58768;SDS011;44536;47.474;19.056;2023-03-20T09:23:40;10.75;;;5.87;;
58768;SDS011;44536;47.474;19.056;2023-03-20T09:26:42;13.05;;;5.93;;
58768;SDS011;44536;47.474;19.056;2023-03-20T09:29:45;9.85;;;6.25;;
58768;SDS011;44536;47.474;19.056;2023-03-20T09:32:47;11.63;;;4.65;;
58768;SDS011;44536;47.474;19.056;2023-03-20T09:35:51;9.43;;;4.75;;
58768;SDS011;44536;47.474;19.056;2023-03-20T09:38:54;10.35;;;6.20;;
58768;SDS011;44536;47.474;19.056;2023-03-20T09:41:57;9.93;;;6.03;;
58768;SDS011;44536;47.474;19.056;2023-03-20T09:48:29;8.85;;;4.93;;
58768;SDS011;44536;47.474;19.056;2023-03-20T09:51:49;14.38;;;6.00;;
58768;SDS011;44536;47.474;19.056;2023-03-20T09:54:57;8.68;;;5.37;;
58768;SDS011;44536;47.474;19.056;2023-03-20T09:58:05;13.32;;;6.05;;
58768;SDS011;44536;47.474;19.056;2023-03-20T10:01:14;12.25;;;6.57;;
58768;SDS011;44536;47.474;19.056;2023-03-20T10:04:16;24.73;;;8.10;;
58768;SDS011;44536;47.474;19.056;2023-03-20T10:07:19;13.18;;;6.78;;
58768;SDS011;44536;47.474;19.056;2023-03-20T10:10:26;10.55;;;6.35;;
58768;SDS011;44536;47.474;19.056;2023-03-20T10:22:54;10.60;;;6.43;;
58768;SDS011;44536;47.474;19.056;2023-03-20T10:26:10;12.27;;;7.35;;
58768;SDS011;44536;47.474;19.056;2023-03-20T10:32:28;10.65;;;6.45;;
58768;SDS011;44536;47.474;19.056;2023-03-20T10:35:51;13.90;;;6.45;;
58768;SDS011;44536;47.474;19.056;2023-03-20T10:42:32;10.70;;;6.97;;
58768;SDS011;44536;47.474;19.056;2023-03-20T10:45:41;12.15;;;6.18;;
58768;SDS011;44536;47.474;19.056;2023-03-20T10:52:05;12.05;;;6.10;;
58768;SDS011;44536;47.474;19.056;2023-03-20T10:55:17;11.77;;;7.05;;
58768;SDS011;44536;47.474;19.056;2023-03-20T10:58:28;11.68;;;6.20;;
58768;SDS011;44536;47.474;19.056;2023-03-20T11:01:36;8.93;;;6.10;;
58768;SDS011;44536;47.474;19.056;2023-03-20T11:04:38;12.10;;;6.60;;
58768;SDS011;44536;47.474;19.056;2023-03-20T11:07:41;12.63;;;7.55;;
58768;SDS011;44536;47.474;19.056;2023-03-20T11:10:46;16.40;;;7.80;;
58768;SDS011;44536;47.474;19.056;2023-03-20T11:14:15;14.38;;;7.70;;
58768;SDS011;44536;47.474;19.056;2023-03-20T11:17:20;13.15;;;6.90;;
58768;SDS011;44536;47.474;19.056;2023-03-20T11:20:24;12.23;;;8.23;;
58768;SDS011;44536;47.474;19.056;2023-03-20T11:23:29;12.30;;;6.75;;
58768;SDS011;44536;47.474;19.056;2023-03-20T11:26:36;11.15;;;7.12;;
58768;SDS011;44536;47.474;19.056;2023-03-20T11:29:41;11.48;;;6.82;;
58768;SDS011;44536;47.474;19.056;2023-03-20T11:32:47;12.90;;;6.70;;
58768;SDS011;44536;47.474;19.056;2023-03-20T11:35:52;12.07;;;6.82;;
58768;SDS011;44536;47.474;19.056;2023-03-20T11:39:05;11.60;;;7.65;;
58768;SDS011;44536;47.474;19.056;2023-03-20T11:42:21;12.85;;;6.95;;
58768;SDS011;44536;47.474;19.056;2023-03-20T11:45:26;10.15;;;6.97;;
58768;SDS011;44536;47.474;19.056;2023-03-20T11:48:39;12.02;;;7.03;;
58768;SDS011;44536;47.474;19.056;2023-03-20T11:51:42;13.77;;;7.68;;
58768;SDS011;44536;47.474;19.056;2023-03-20T11:54:46;11.12;;;7.68;;
58768;SDS011;44536;47.474;19.056;2023-03-20T11:57:54;11.48;;;7.07;;
58768;SDS011;44536;47.474;19.056;2023-03-20T12:00:59;11.27;;;7.10;;
58768;SDS011;44536;47.474;19.056;2023-03-20T12:04:08;11.50;;;8.75;;
58768;SDS011;44536;47.474;19.056;2023-03-20T12:07:21;13.52;;;7.72;;
58768;SDS011;44536;47.474;19.056;2023-03-20T12:10:30;10.45;;;6.32;;
58768;SDS011;44536;47.474;19.056;2023-03-20T12:13:39;12.80;;;8.88;;
58768;SDS011;44536;47.474;19.056;2023-03-20T12:16:47;11.52;;;7.68;;
58768;SDS011;44536;47.474;19.056;2023-03-20T12:19:53;11.70;;;7.00;;
58768;SDS011;44536;47.474;19.056;2023-03-20T12:23:10;11.35;;;7.43;;
58768;SDS011;44536;47.474;19.056;2023-03-20T12:26:21;12.15;;;7.20;;
58768;SDS011;44536;47.474;19.056;2023-03-20T12:29:31;10.38;;;6.43;;
58768;SDS011;44536;47.474;19.056;2023-03-20T12:32:53;13.20;;;8.23;;
58768;SDS011;44536;47.474;19.056;2023-03-20T12:36:04;12.18;;;7.22;;
58768;SDS011;44536;47.474;19.056;2023-03-20T12:39:27;11.80;;;6.70;;
58768;SDS011;44536;47.474;19.056;2023-03-20T12:45:59;11.25;;;6.93;;
58768;SDS011;44536;47.474;19.056;2023-03-20T12:49:46;12.02;;;8.13;;
58768;SDS011;44536;47.474;19.056;2023-03-20T12:56:17;12.95;;;7.72;;
58768;SDS011;44536;47.474;19.056;2023-03-20T13:06:31;14.90;;;7.85;;
58768;SDS011;44536;47.474;19.056;2023-03-20T13:13:20;16.42;;;8.68;;
58768;SDS011;44536;47.474;19.056;2023-03-20T13:16:34;14.32;;;8.40;;
58768;SDS011;44536;47.474;19.056;2023-03-20T13:19:43;13.40;;;9.48;;
58768;SDS011;44536;47.474;19.056;2023-03-20T13:26:50;11.48;;;7.45;;
58768;SDS011;44536;47.474;19.056;2023-03-20T13:30:02;12.68;;;7.45;;
58768;SDS011;44536;47.474;19.056;2023-03-20T13:33:22;16.15;;;7.62;;
58768;SDS011;44536;47.474;19.056;2023-03-20T13:36:45;16.05;;;8.25;;
58768;SDS011;44536;47.474;19.056;2023-03-20T13:46:48;13.93;;;7.20;;
58768;SDS011;44536;47.474;19.056;2023-03-20T13:53:24;11.98;;;7.00;;
58768;SDS011;44536;47.474;19.056;2023-03-20T13:56:36;12.00;;;7.40;;
58768;SDS011;44536;47.474;19.056;2023-03-20T13:59:49;15.68;;;8.45;;
58768;SDS011;44536;47.474;19.056;2023-03-20T14:06:42;11.75;;;8.13;;
58768;SDS011;44536;47.474;19.056;2023-03-20T14:09:50;13.05;;;6.78;;
58768;SDS011;44536;47.474;19.056;2023-03-20T14:16:01;13.90;;;7.43;;
58768;SDS011;44536;47.474;19.056;2023-03-20T14:22:29;12.35;;;8.25;;
58768;SDS011;44536;47.474;19.056;2023-03-20T14:25:41;16.27;;;7.50;;
58768;SDS011;44536;47.474;19.056;2023-03-20T14:32:03;13.50;;;8.18;;
58768;SDS011;44536;47.474;19.056;2023-03-20T14:35:22;13.50;;;7.47;;
58768;SDS011;44536;47.474;19.056;2023-03-20T14:38:36;12.07;;;7.78;;
58768;SDS011;44536;47.474;19.056;2023-03-20T14:51:43;15.82;;;7.97;;
58768;SDS011;44536;47.474;19.056;2023-03-20T14:54:52;12.27;;;7.35;;
58768;SDS011;44536;47.474;19.056;2023-03-20T14:57:56;13.60;;;7.57;;
58768;SDS011;44536;47.474;19.056;2023-03-20T15:01:07;11.68;;;6.43;;
58768;SDS011;44536;47.474;19.056;2023-03-20T15:04:27;12.07;;;7.70;;
58768;SDS011;44536;47.474;19.056;2023-03-20T15:07:41;11.52;;;7.68;;
58768;SDS011;44536;47.474;19.056;2023-03-20T15:10:45;12.07;;;7.30;;
58768;SDS011;44536;47.474;19.056;2023-03-20T15:13:51;12.90;;;7.62;;
58768;SDS011;44536;47.474;19.056;2023-03-20T15:16:58;14.38;;;8.27;;
58768;SDS011;44536;47.474;19.056;2023-03-20T15:20:13;15.02;;;7.80;;
58768;SDS011;44536;47.474;19.056;2023-03-20T15:23:40;14.05;;;7.87;;
58768;SDS011;44536;47.474;19.056;2023-03-20T15:26:45;11.65;;;7.40;;
58768;SDS011;44536;47.474;19.056;2023-03-20T15:29:52;13.25;;;7.28;;
58768;SDS011;44536;47.474;19.056;2023-03-20T15:32:56;12.52;;;7.43;;
58768;SDS011;44536;47.474;19.056;2023-03-20T15:36:07;11.90;;;7.05;;
58768;SDS011;44536;47.474;19.056;2023-03-20T15:42:18;12.95;;;7.65;;
58768;SDS011;44536;47.474;19.056;2023-03-20T15:45:33;10.15;;;6.72;;
58768;SDS011;44536;47.474;19.056;2023-03-20T15:48:39;13.50;;;7.62;;
58768;SDS011;44536;47.474;19.056;2023-03-20T15:51:41;12.27;;;7.75;;
58768;SDS011;44536;47.474;19.056;2023-03-20T15:54:44;12.80;;;7.63;;
58768;SDS011;44536;47.474;19.056;2023-03-20T15:57:49;13.30;;;7.50;;
58768;SDS011;44536;47.474;19.056;2023-03-20T16:00:58;12.15;;;7.60;;
58768;SDS011;44536;47.474;19.056;2023-03-20T16:04:03;13.27;;;7.65;;
58768;SDS011;44536;47.474;19.056;2023-03-20T16:07:17;10.90;;;7.03;;
58768;SDS011;44536;47.474;19.056;2023-03-20T16:10:27;10.07;;;6.43;;
58768;SDS011;44536;47.474;19.056;2023-03-20T16:13:39;12.13;;;6.47;;
58768;SDS011;44536;47.474;19.056;2023-03-20T16:16:46;12.17;;;6.83;;
58768;SDS011;44536;47.474;19.056;2023-03-20T16:19:50;9.15;;;6.28;;
58768;SDS011;44536;47.474;19.056;2023-03-20T16:22:54;10.60;;;6.40;;
58768;SDS011;44536;47.474;19.056;2023-03-20T16:26:02;10.18;;;5.95;;
58768;SDS011;44536;47.474;19.056;2023-03-20T16:29:08;9.02;;;5.35;;
58768;SDS011;44536;47.474;19.056;2023-03-20T16:32:19;10.80;;;6.70;;
58768;SDS011;44536;47.474;19.056;2023-03-20T16:35:30;12.13;;;6.00;;
58768;SDS011;44536;47.474;19.056;2023-03-20T16:38:38;12.65;;;6.30;;
58768;SDS011;44536;47.474;19.056;2023-03-20T16:41:42;13.90;;;8.50;;
58768;SDS011;44536;47.474;19.056;2023-03-20T16:44:45;9.80;;;6.25;;
58768;SDS011;44536;47.474;19.056;2023-03-20T16:47:48;11.30;;;6.25;;
58768;SDS011;44536;47.474;19.056;2023-03-20T16:50:54;11.63;;;6.47;;
58768;SDS011;44536;47.474;19.056;2023-03-20T16:54:01;8.70;;;6.12;;
58768;SDS011;44536;47.474;19.056;2023-03-20T16:57:07;11.40;;;6.65;;
58768;SDS011;44536;47.474;19.056;2023-03-20T17:00:21;9.68;;;6.50;;
58768;SDS011;44536;47.474;19.056;2023-03-20T17:03:51;11.70;;;6.82;;
58768;SDS011;44536;47.474;19.056;2023-03-20T17:06:58;9.65;;;6.35;;
58768;SDS011;44536;47.474;19.056;2023-03-20T17:13:17;9.30;;;6.30;;
58768;SDS011;44536;47.474;19.056;2023-03-20T17:16:19;13.85;;;7.32;;
58768;SDS011;44536;47.474;19.056;2023-03-20T17:22:25;9.73;;;6.15;;
58768;SDS011;44536;47.474;19.056;2023-03-20T17:25:30;11.38;;;6.45;;
58768;SDS011;44536;47.474;19.056;2023-03-20T17:28:33;13.53;;;6.57;;
58768;SDS011;44536;47.474;19.056;2023-03-20T17:31:38;10.05;;;5.65;;
58768;SDS011;44536;47.474;19.056;2023-03-20T17:34:41;10.43;;;6.37;;
58768;SDS011;44536;47.474;19.056;2023-03-20T17:37:46;11.95;;;5.55;;
58768;SDS011;44536;47.474;19.056;2023-03-20T17:40:50;10.07;;;5.78;;
58768;SDS011;44536;47.474;19.056;2023-03-20T17:43:53;9.75;;;6.20;;
58768;SDS011;44536;47.474;19.056;2023-03-20T17:46:59;10.20;;;5.57;;
58768;SDS011;44536;47.474;19.056;2023-03-20T17:50:02;11.60;;;6.90;;
58768;SDS011;44536;47.474;19.056;2023-03-20T17:53:04;10.77;;;7.10;;
58768;SDS011;44536;47.474;19.056;2023-03-20T17:56:11;10.57;;;6.07;;
58768;SDS011;44536;47.474;19.056;2023-03-20T17:59:15;11.52;;;6.57;;
58768;SDS011;44536;47.474;19.056;2023-03-20T18:02:17;10.77;;;5.40;;
58768;SDS011;44536;47.474;19.056;2023-03-20T18:05:20;9.32;;;5.68;;
58768;SDS011;44536;47.474;19.056;2023-03-20T18:08:23;9.43;;;5.35;;
58768;SDS011;44536;47.474;19.056;2023-03-20T18:11:25;10.48;;;6.12;;
58768;SDS011;44536;47.474;19.056;2023-03-20T18:14:29;10.15;;;5.05;;
58768;SDS011;44536;47.474;19.056;2023-03-20T18:17:31;12.35;;;5.15;;
58768;SDS011;44536;47.474;19.056;2023-03-20T18:20:37;9.38;;;5.87;;
58768;SDS011;44536;47.474;19.056;2023-03-20T18:23:42;7.97;;;4.80;;
58768;SDS011;44536;47.474;19.056;2023-03-20T18:26:45;10.75;;;6.03;;
58768;SDS011;44536;47.474;19.056;2023-03-20T18:29:48;9.40;;;4.78;;
58768;SDS011;44536;47.474;19.056;2023-03-20T18:32:50;12.15;;;6.37;;
58768;SDS011;44536;47.474;19.056;2023-03-20T18:35:53;9.52;;;4.93;;
58768;SDS011;44536;47.474;19.056;2023-03-20T18:38:55;8.63;;;5.53;;
58768;SDS011;44536;47.474;19.056;2023-03-20T18:41:58;10.55;;;5.97;;
58768;SDS011;44536;47.474;19.056;2023-03-20T18:45:00;8.65;;;4.65;;
58768;SDS011;44536;47.474;19.056;2023-03-20T18:48:03;8.68;;;4.87;;
58768;SDS011;44536;47.474;19.056;2023-03-20T18:51:06;15.18;;;5.80;;
58768;SDS011;44536;47.474;19.056;2023-03-20T18:54:10;8.57;;;5.00;;
58768;SDS011;44536;47.474;19.056;2023-03-20T18:57:13;9.63;;;4.70;;
58768;SDS011;44536;47.474;19.056;2023-03-20T19:00:17;9.68;;;6.10;;
58768;SDS011;44536;47.474;19.056;2023-03-20T19:03:25;9.35;;;5.93;;
58768;SDS011;44536;47.474;19.056;2023-03-20T19:06:29;9.25;;;6.07;;
58768;SDS011;44536;47.474;19.056;2023-03-20T19:09:33;12.52;;;7.25;;
58768;SDS011;44536;47.474;19.056;2023-03-20T19:12:35;12.32;;;7.30;;
58768;SDS011;44536;47.474;19.056;2023-03-20T19:15:38;16.08;;;7.72;;
58768;SDS011;44536;47.474;19.056;2023-03-20T19:18:40;10.93;;;7.10;;
58768;SDS011;44536;47.474;19.056;2023-03-20T19:21:42;11.65;;;7.10;;
58768;SDS011;44536;47.474;19.056;2023-03-20T19:24:45;11.88;;;7.70;;
58768;SDS011;44536;47.474;19.056;2023-03-20T19:27:47;11.20;;;6.80;;
58768;SDS011;44536;47.474;19.056;2023-03-20T19:30:50;21.70;;;6.60;;
58768;SDS011;44536;47.474;19.056;2023-03-20T19:33:53;13.05;;;8.18;;
58768;SDS011;44536;47.474;19.056;2023-03-20T19:36:57;10.75;;;7.00;;
58768;SDS011;44536;47.474;19.056;2023-03-20T19:40:00;10.68;;;6.57;;
58768;SDS011;44536;47.474;19.056;2023-03-20T19:43:02;12.37;;;6.93;;
58768;SDS011;44536;47.474;19.056;2023-03-20T19:46:05;11.57;;;6.25;;
58768;SDS011;44536;47.474;19.056;2023-03-20T19:49:15;12.52;;;7.15;;
58768;SDS011;44536;47.474;19.056;2023-03-20T19:52:23;9.93;;;5.82;;
58768;SDS011;44536;47.474;19.056;2023-03-20T19:55:31;10.52;;;6.72;;
58768;SDS011;44536;47.474;19.056;2023-03-20T19:58:33;10.90;;;6.28;;
58768;SDS011;44536;47.474;19.056;2023-03-20T20:01:36;12.93;;;7.27;;
58768;SDS011;44536;47.474;19.056;2023-03-20T20:04:39;12.27;;;7.93;;
58768;SDS011;44536;47.474;19.056;2023-03-20T20:07:41;14.52;;;7.28;;
58768;SDS011;44536;47.474;19.056;2023-03-20T20:11:04;12.15;;;7.15;;
58768;SDS011;44536;47.474;19.056;2023-03-20T20:14:06;12.30;;;7.50;;
58768;SDS011;44536;47.474;19.056;2023-03-20T20:17:12;12.35;;;6.30;;
58768;SDS011;44536;47.474;19.056;2023-03-20T20:20:16;11.68;;;7.15;;
58768;SDS011;44536;47.474;19.056;2023-03-20T20:23:26;14.55;;;6.75;;
58768;SDS011;44536;47.474;19.056;2023-03-20T20:26:29;12.40;;;6.12;;